sensor_id;sensor_type;location;lat;lon;timestamp;temperature;humidity
14093;DHT22;7123;49.468;10.992;2022-10-28T00:01:39;16.60;99.90
14093;DHT22;7123;49.468;10.992;2022-10-28T00:04:06;16.70;99.90
14093;DHT22;7123;49.468;10.992;2022-10-28T00:06:34;16.60;99.90
14093;DHT22;7123;49.468;10.992;2022-10-28T00:09:02;16.70;99.90
14093;DHT22;7123;49.468;10.992;2022-10-28T00:11:34;16.60;99.90
14093;DHT22;7123;49.468;10.992;2022-10-28T00:14:03;16.60;99.90
14093;DHT22;7123;49.468;10.992;2022-10-28T00:16:33;16.60;99.90
14093;DHT22;7123;49.468;10.992;2022-10-28T00:19:01;16.60;99.90
14093;DHT22;7123;49.468;10.992;2022-10-28T00:21:30;16.60;99.90
14093;DHT22;7123;49.468;10.992;2022-10-28T00:23:57;16.60;99.90
14093;DHT22;7123;49.468;10.992;2022-10-28T00:26:26;16.60;99.90
14093;DHT22;7123;49.468;10.992;2022-10-28T00:29:02;16.60;99.90
14093;DHT22;7123;49.468;10.992;2022-10-28T00:31:29;16.60;99.90
14093;DHT22;7123;49.468;10.992;2022-10-28T00:34:01;16.60;99.90
14093;DHT22;7123;49.468;10.992;2022-10-28T00:36:36;16.60;99.90
14093;DHT22;7123;49.468;10.992;2022-10-28T00:39:25;16.50;99.90
14093;DHT22;7123;49.468;10.992;2022-10-28T00:41:58;16.50;99.90
14093;DHT22;7123;49.468;10.992;2022-10-28T00:53:27;16.50;99.90
14093;DHT22;7123;49.468;10.992;2022-10-28T00:55:55;16.50;99.90
14093;DHT22;7123;49.468;10.992;2022-10-28T00:58:24;16.50;99.90
14093;DHT22;7123;49.468;10.992;2022-10-28T01:00:52;16.50;99.90
14093;DHT22;7123;49.468;10.992;2022-10-28T01:03:18;16.50;99.90
14093;DHT22;7123;49.468;10.992;2022-10-28T01:05:47;16.50;99.90
14093;DHT22;7123;49.468;10.992;2022-10-28T01:08:15;16.50;99.90
14093;DHT22;7123;49.468;10.992;2022-10-28T01:26:59;16.50;99.90
14093;DHT22;7123;49.468;10.992;2022-10-28T01:30:27;16.50;99.90
14093;DHT22;7123;49.468;10.992;2022-10-28T01:32:28;16.50;99.90
14093;DHT22;7123;49.468;10.992;2022-10-28T01:37:35;16.50;99.90
14093;DHT22;7123;49.468;10.992;2022-10-28T01:40:21;16.40;99.90
14093;DHT22;7123;49.468;10.992;2022-10-28T01:48:20;16.40;99.90
14093;DHT22;7123;49.468;10.992;2022-10-28T01:51:04;16.30;99.90
14093;DHT22;7123;49.468;10.992;2022-10-28T01:53:34;16.30;99.90
14093;DHT22;7123;49.468;10.992;2022-10-28T01:56:10;16.30;99.90
14093;DHT22;7123;49.468;10.992;2022-10-28T01:58:39;16.20;99.90
14093;DHT22;7123;49.468;10.992;2022-10-28T02:01:08;16.20;99.90
14093;DHT22;7123;49.468;10.992;2022-10-28T02:03:35;16.20;99.90
14093;DHT22;7123;49.468;10.992;2022-10-28T02:06:05;16.20;99.90
14093;DHT22;7123;49.468;10.992;2022-10-28T02:20:50;16.10;99.90
14093;DHT22;7123;49.468;10.992;2022-10-28T02:26:09;16.10;99.90
14093;DHT22;7123;49.468;10.992;2022-10-28T02:28:52;16.10;99.90
14093;DHT22;7123;49.468;10.992;2022-10-28T02:33:58;16.10;99.90
14093;DHT22;7123;49.468;10.992;2022-10-28T02:36:27;16.10;99.90
14093;DHT22;7123;49.468;10.992;2022-10-28T02:38:57;16.10;99.90
14093;DHT22;7123;49.468;10.992;2022-10-28T02:44:12;16.10;99.90
14093;DHT22;7123;49.468;10.992;2022-10-28T02:46:42;16.10;99.90
14093;DHT22;7123;49.468;10.992;2022-10-28T02:49:12;16.20;99.90
14093;DHT22;7123;49.468;10.992;2022-10-28T02:51:45;16.10;99.90
14093;DHT22;7123;49.468;10.992;2022-10-28T02:54:17;16.00;99.90
14093;DHT22;7123;49.468;10.992;2022-10-28T02:56:56;16.10;99.90
14093;DHT22;7123;49.468;10.992;2022-10-28T02:59:24;16.10;99.90
14093;DHT22;7123;49.468;10.992;2022-10-28T03:01:51;16.10;99.90
14093;DHT22;7123;49.468;10.992;2022-10-28T03:04:18;16.10;99.90
14093;DHT22;7123;49.468;10.992;2022-10-28T03:06:44;16.00;99.90
14093;DHT22;7123;49.468;10.992;2022-10-28T03:09:11;16.00;99.90
14093;DHT22;7123;49.468;10.992;2022-10-28T03:11:38;16.00;99.90
14093;DHT22;7123;49.468;10.992;2022-10-28T03:14:04;16.00;99.90
14093;DHT22;7123;49.468;10.992;2022-10-28T03:16:31;16.00;99.90
14093;DHT22;7123;49.468;10.992;2022-10-28T03:18:58;16.00;99.90
14093;DHT22;7123;49.468;10.992;2022-10-28T03:21:24;16.00;99.90
14093;DHT22;7123;49.468;10.992;2022-10-28T03:23:51;15.90;99.90
14093;DHT22;7123;49.468;10.992;2022-10-28T03:26:18;15.90;99.90
14093;DHT22;7123;49.468;10.992;2022-10-28T03:28:44;15.90;99.90
14093;DHT22;7123;49.468;10.992;2022-10-28T03:31:11;15.90;99.90
14093;DHT22;7123;49.468;10.992;2022-10-28T03:33:38;15.90;99.90
14093;DHT22;7123;49.468;10.992;2022-10-28T03:36:04;15.90;99.90
14093;DHT22;7123;49.468;10.992;2022-10-28T03:38:31;15.90;99.90
14093;DHT22;7123;49.468;10.992;2022-10-28T03:40:58;15.90;99.90
14093;DHT22;7123;49.468;10.992;2022-10-28T03:43:24;15.90;99.90
14093;DHT22;7123;49.468;10.992;2022-10-28T03:45:51;15.80;99.90
14093;DHT22;7123;49.468;10.992;2022-10-28T03:48:18;15.80;99.90
14093;DHT22;7123;49.468;10.992;2022-10-28T03:50:44;15.80;99.90
14093;DHT22;7123;49.468;10.992;2022-10-28T03:53:11;15.80;99.90
14093;DHT22;7123;49.468;10.992;2022-10-28T03:55:38;15.80;99.90
14093;DHT22;7123;49.468;10.992;2022-10-28T03:58:04;15.80;99.90
14093;DHT22;7123;49.468;10.992;2022-10-28T04:00:31;15.80;99.90
14093;DHT22;7123;49.468;10.992;2022-10-28T04:02:57;15.80;99.90
14093;DHT22;7123;49.468;10.992;2022-10-28T04:05:24;15.80;99.90
14093;DHT22;7123;49.468;10.992;2022-10-28T04:07:51;15.80;99.90
14093;DHT22;7123;49.468;10.992;2022-10-28T04:10:19;15.80;99.90
14093;DHT22;7123;49.468;10.992;2022-10-28T04:12:46;15.90;99.90
14093;DHT22;7123;49.468;10.992;2022-10-28T04:15:12;15.80;99.90
14093;DHT22;7123;49.468;10.992;2022-10-28T04:17:39;15.80;99.90
14093;DHT22;7123;49.468;10.992;2022-10-28T04:20:06;15.80;99.90
14093;DHT22;7123;49.468;10.992;2022-10-28T04:22:33;15.80;99.90
14093;DHT22;7123;49.468;10.992;2022-10-28T04:24:59;15.90;99.90
14093;DHT22;7123;49.468;10.992;2022-10-28T04:27:26;15.80;99.90
14093;DHT22;7123;49.468;10.992;2022-10-28T04:29:53;15.80;99.90
14093;DHT22;7123;49.468;10.992;2022-10-28T04:32:19;15.80;99.90
14093;DHT22;7123;49.468;10.992;2022-10-28T04:34:46;15.80;99.90
14093;DHT22;7123;49.468;10.992;2022-10-28T04:37:12;15.80;99.90
14093;DHT22;7123;49.468;10.992;2022-10-28T04:39:46;15.80;99.90
14093;DHT22;7123;49.468;10.992;2022-10-28T04:42:13;15.80;99.90
14093;DHT22;7123;49.468;10.992;2022-10-28T04:44:40;15.80;99.90
14093;DHT22;7123;49.468;10.992;2022-10-28T04:47:06;15.80;99.90
14093;DHT22;7123;49.468;10.992;2022-10-28T04:49:33;15.80;99.90
14093;DHT22;7123;49.468;10.992;2022-10-28T04:52:04;15.80;99.90
14093;DHT22;7123;49.468;10.992;2022-10-28T04:54:31;15.80;99.90
14093;DHT22;7123;49.468;10.992;2022-10-28T04:56:57;15.80;99.90
14093;DHT22;7123;49.468;10.992;2022-10-28T04:59:24;15.80;99.90
14093;DHT22;7123;49.468;10.992;2022-10-28T05:01:51;15.80;99.90
14093;DHT22;7123;49.468;10.992;2022-10-28T05:04:18;15.80;99.90
14093;DHT22;7123;49.468;10.992;2022-10-28T05:06:44;15.80;99.90
14093;DHT22;7123;49.468;10.992;2022-10-28T05:09:11;15.80;99.90
14093;DHT22;7123;49.468;10.992;2022-10-28T05:11:38;15.80;99.90
14093;DHT22;7123;49.468;10.992;2022-10-28T05:14:05;15.70;99.90
14093;DHT22;7123;49.468;10.992;2022-10-28T05:16:31;15.50;99.90
14093;DHT22;7123;49.468;10.992;2022-10-28T05:18:58;15.50;99.90
14093;DHT22;7123;49.468;10.992;2022-10-28T05:21:25;15.50;99.90
14093;DHT22;7123;49.468;10.992;2022-10-28T05:23:52;15.50;99.90
14093;DHT22;7123;49.468;10.992;2022-10-28T05:26:18;15.50;99.90
14093;DHT22;7123;49.468;10.992;2022-10-28T05:28:51;15.60;99.90
14093;DHT22;7123;49.468;10.992;2022-10-28T05:31:17;15.60;99.90
14093;DHT22;7123;49.468;10.992;2022-10-28T05:33:44;15.70;99.90
14093;DHT22;7123;49.468;10.992;2022-10-28T05:36:11;15.70;99.90
14093;DHT22;7123;49.468;10.992;2022-10-28T05:38:37;15.70;99.90
14093;DHT22;7123;49.468;10.992;2022-10-28T05:41:05;15.70;99.90
14093;DHT22;7123;49.468;10.992;2022-10-28T05:43:31;15.80;99.90
14093;DHT22;7123;49.468;10.992;2022-10-28T05:45:58;15.80;99.90
14093;DHT22;7123;49.468;10.992;2022-10-28T05:48:25;15.80;99.90
14093;DHT22;7123;49.468;10.992;2022-10-28T05:50:51;15.80;99.90
14093;DHT22;7123;49.468;10.992;2022-10-28T05:53:18;15.70;99.90
14093;DHT22;7123;49.468;10.992;2022-10-28T05:55:44;15.70;99.90
14093;DHT22;7123;49.468;10.992;2022-10-28T05:58:13;15.70;99.90
14093;DHT22;7123;49.468;10.992;2022-10-28T06:00:40;15.70;99.90
14093;DHT22;7123;49.468;10.992;2022-10-28T06:03:09;15.70;99.90
14093;DHT22;7123;49.468;10.992;2022-10-28T06:05:39;15.70;99.90
14093;DHT22;7123;49.468;10.992;2022-10-28T06:08:06;15.70;99.90
14093;DHT22;7123;49.468;10.992;2022-10-28T06:10:33;15.80;99.90
14093;DHT22;7123;49.468;10.992;2022-10-28T06:13:00;15.70;99.90
14093;DHT22;7123;49.468;10.992;2022-10-28T06:15:27;15.80;99.90
14093;DHT22;7123;49.468;10.992;2022-10-28T06:17:53;15.70;99.90
14093;DHT22;7123;49.468;10.992;2022-10-28T06:20:20;15.70;99.90
14093;DHT22;7123;49.468;10.992;2022-10-28T06:25:14;15.70;99.90
14093;DHT22;7123;49.468;10.992;2022-10-28T06:27:41;15.70;99.90
14093;DHT22;7123;49.468;10.992;2022-10-28T06:30:08;15.70;99.90
14093;DHT22;7123;49.468;10.992;2022-10-28T06:32:35;15.70;99.90
14093;DHT22;7123;49.468;10.992;2022-10-28T06:35:02;15.70;99.90
14093;DHT22;7123;49.468;10.992;2022-10-28T06:37:28;15.70;99.90
14093;DHT22;7123;49.468;10.992;2022-10-28T06:39:55;15.70;99.90
14093;DHT22;7123;49.468;10.992;2022-10-28T06:42:24;15.70;99.90
14093;DHT22;7123;49.468;10.992;2022-10-28T06:44:50;15.70;99.90
14093;DHT22;7123;49.468;10.992;2022-10-28T06:47:17;15.70;99.90
14093;DHT22;7123;49.468;10.992;2022-10-28T06:49:44;15.70;99.90
14093;DHT22;7123;49.468;10.992;2022-10-28T06:52:10;15.70;99.90
14093;DHT22;7123;49.468;10.992;2022-10-28T06:54:37;15.70;99.90
14093;DHT22;7123;49.468;10.992;2022-10-28T06:57:04;15.70;99.90
14093;DHT22;7123;49.468;10.992;2022-10-28T06:59:30;15.70;99.90
14093;DHT22;7123;49.468;10.992;2022-10-28T07:01:57;15.70;99.90
14093;DHT22;7123;49.468;10.992;2022-10-28T07:04:23;15.80;99.90
14093;DHT22;7123;49.468;10.992;2022-10-28T07:06:54;15.80;99.90
14093;DHT22;7123;49.468;10.992;2022-10-28T07:09:21;15.70;99.90
14093;DHT22;7123;49.468;10.992;2022-10-28T07:11:48;15.70;99.90
14093;DHT22;7123;49.468;10.992;2022-10-28T07:14:20;15.60;99.90
14093;DHT22;7123;49.468;10.992;2022-10-28T07:16:47;15.60;99.90
14093;DHT22;7123;49.468;10.992;2022-10-28T07:19:13;15.60;99.90
14093;DHT22;7123;49.468;10.992;2022-10-28T07:21:46;15.70;99.90
14093;DHT22;7123;49.468;10.992;2022-10-28T07:24:13;15.70;99.90
14093;DHT22;7123;49.468;10.992;2022-10-28T07:26:39;15.60;99.90
14093;DHT22;7123;49.468;10.992;2022-10-28T07:29:06;15.50;99.90
14093;DHT22;7123;49.468;10.992;2022-10-28T07:31:33;15.40;99.90
14093;DHT22;7123;49.468;10.992;2022-10-28T07:33:59;15.30;99.90
14093;DHT22;7123;49.468;10.992;2022-10-28T07:36:26;15.20;99.90
14093;DHT22;7123;49.468;10.992;2022-10-28T07:38:52;15.00;99.90
14093;DHT22;7123;49.468;10.992;2022-10-28T07:41:21;14.60;99.90
14093;DHT22;7123;49.468;10.992;2022-10-28T07:43:47;14.60;99.90
14093;DHT22;7123;49.468;10.992;2022-10-28T07:46:15;14.60;99.90
14093;DHT22;7123;49.468;10.992;2022-10-28T07:48:42;14.60;99.90
14093;DHT22;7123;49.468;10.992;2022-10-28T07:51:11;14.70;99.90
14093;DHT22;7123;49.468;10.992;2022-10-28T07:53:38;14.90;99.90
14093;DHT22;7123;49.468;10.992;2022-10-28T07:56:07;15.00;99.90
14093;DHT22;7123;49.468;10.992;2022-10-28T07:58:35;15.10;99.90
14093;DHT22;7123;49.468;10.992;2022-10-28T08:01:04;15.20;99.90
14093;DHT22;7123;49.468;10.992;2022-10-28T08:03:32;15.20;99.90
14093;DHT22;7123;49.468;10.992;2022-10-28T08:06:08;15.30;99.90
14093;DHT22;7123;49.468;10.992;2022-10-28T08:08:35;15.50;99.90
14093;DHT22;7123;49.468;10.992;2022-10-28T08:11:29;15.60;99.90
14093;DHT22;7123;49.468;10.992;2022-10-28T08:13:55;15.70;99.90
14093;DHT22;7123;49.468;10.992;2022-10-28T08:16:22;15.70;99.90
14093;DHT22;7123;49.468;10.992;2022-10-28T08:18:49;15.80;99.90
14093;DHT22;7123;49.468;10.992;2022-10-28T08:21:16;15.80;99.90
14093;DHT22;7123;49.468;10.992;2022-10-28T08:23:43;15.90;99.90
14093;DHT22;7123;49.468;10.992;2022-10-28T08:26:13;15.90;99.90
14093;DHT22;7123;49.468;10.992;2022-10-28T08:28:41;15.90;99.90
14093;DHT22;7123;49.468;10.992;2022-10-28T08:31:08;16.00;99.90
14093;DHT22;7123;49.468;10.992;2022-10-28T08:33:39;16.00;99.90
14093;DHT22;7123;49.468;10.992;2022-10-28T08:36:08;16.00;99.90
14093;DHT22;7123;49.468;10.992;2022-10-28T08:38:34;16.00;99.90
14093;DHT22;7123;49.468;10.992;2022-10-28T08:41:07;16.00;99.90
14093;DHT22;7123;49.468;10.992;2022-10-28T08:47:02;16.10;99.90
14093;DHT22;7123;49.468;10.992;2022-10-28T08:49:36;16.10;99.90
14093;DHT22;7123;49.468;10.992;2022-10-28T08:55:04;16.20;99.90
14093;DHT22;7123;49.468;10.992;2022-10-28T08:57:43;16.20;99.90
14093;DHT22;7123;49.468;10.992;2022-10-28T09:00:25;16.20;99.90
14093;DHT22;7123;49.468;10.992;2022-10-28T09:05:37;16.40;99.90
14093;DHT22;7123;49.468;10.992;2022-10-28T09:08:05;16.40;99.90
14093;DHT22;7123;49.468;10.992;2022-10-28T09:15:59;16.50;99.90
14093;DHT22;7123;49.468;10.992;2022-10-28T09:18:54;16.60;99.90
14093;DHT22;7123;49.468;10.992;2022-10-28T09:21:31;16.60;99.90
14093;DHT22;7123;49.468;10.992;2022-10-28T09:24:05;16.70;99.90
14093;DHT22;7123;49.468;10.992;2022-10-28T09:29:19;16.80;99.90
14093;DHT22;7123;49.468;10.992;2022-10-28T09:37:28;16.90;99.90
14093;DHT22;7123;49.468;10.992;2022-10-28T09:40:00;17.00;99.90
14093;DHT22;7123;49.468;10.992;2022-10-28T09:42:31;17.00;99.90
14093;DHT22;7123;49.468;10.992;2022-10-28T09:45:03;17.00;99.90
14093;DHT22;7123;49.468;10.992;2022-10-28T09:47:36;17.10;99.90
14093;DHT22;7123;49.468;10.992;2022-10-28T09:50:10;17.10;99.90
14093;DHT22;7123;49.468;10.992;2022-10-28T09:53:02;17.20;99.90
14093;DHT22;7123;49.468;10.992;2022-10-28T09:55:30;17.20;99.90
14093;DHT22;7123;49.468;10.992;2022-10-28T09:57:58;17.20;99.90
14093;DHT22;7123;49.468;10.992;2022-10-28T10:00:25;17.20;99.90
14093;DHT22;7123;49.468;10.992;2022-10-28T10:02:55;17.30;99.90
14093;DHT22;7123;49.468;10.992;2022-10-28T10:05:24;17.30;99.90
14093;DHT22;7123;49.468;10.992;2022-10-28T10:10:48;17.30;99.90
14093;DHT22;7123;49.468;10.992;2022-10-28T10:13:15;17.40;99.90
14093;DHT22;7123;49.468;10.992;2022-10-28T10:15:50;17.50;99.90
14093;DHT22;7123;49.468;10.992;2022-10-28T10:18:22;17.50;99.90
14093;DHT22;7123;49.468;10.992;2022-10-28T10:20:54;17.60;99.90
14093;DHT22;7123;49.468;10.992;2022-10-28T10:23:34;17.60;99.90
14093;DHT22;7123;49.468;10.992;2022-10-28T10:26:12;17.60;99.90
14093;DHT22;7123;49.468;10.992;2022-10-28T10:28:44;17.70;99.90
14093;DHT22;7123;49.468;10.992;2022-10-28T10:31:24;17.70;99.90
14093;DHT22;7123;49.468;10.992;2022-10-28T10:33:57;17.80;99.90
14093;DHT22;7123;49.468;10.992;2022-10-28T10:36:25;17.80;99.90
14093;DHT22;7123;49.468;10.992;2022-10-28T10:38:59;17.80;99.90
14093;DHT22;7123;49.468;10.992;2022-10-28T10:41:36;17.90;99.90
14093;DHT22;7123;49.468;10.992;2022-10-28T10:44:23;18.00;99.90
14093;DHT22;7123;49.468;10.992;2022-10-28T10:49:33;18.00;99.90
14093;DHT22;7123;49.468;10.992;2022-10-28T10:52:02;18.00;99.90
14093;DHT22;7123;49.468;10.992;2022-10-28T10:54:31;18.00;99.90
14093;DHT22;7123;49.468;10.992;2022-10-28T10:57:08;18.10;99.90
14093;DHT22;7123;49.468;10.992;2022-10-28T10:59:37;18.10;99.90
14093;DHT22;7123;49.468;10.992;2022-10-28T11:02:27;18.10;99.90
14093;DHT22;7123;49.468;10.992;2022-10-28T11:04:58;18.10;99.90
14093;DHT22;7123;49.468;10.992;2022-10-28T11:07:25;18.20;99.90
14093;DHT22;7123;49.468;10.992;2022-10-28T11:09:54;18.20;99.90
14093;DHT22;7123;49.468;10.992;2022-10-28T11:14:59;18.40;99.90
14093;DHT22;7123;49.468;10.992;2022-10-28T11:17:31;18.40;99.90
14093;DHT22;7123;49.468;10.992;2022-10-28T11:23:23;18.50;99.90
14093;DHT22;7123;49.468;10.992;2022-10-28T11:25:58;18.50;99.90
14093;DHT22;7123;49.468;10.992;2022-10-28T11:54:02;19.00;99.90
14093;DHT22;7123;49.468;10.992;2022-10-28T11:56:37;19.10;99.90
14093;DHT22;7123;49.468;10.992;2022-10-28T11:59:31;19.20;99.90
14093;DHT22;7123;49.468;10.992;2022-10-28T12:07:28;19.20;99.90
14093;DHT22;7123;49.468;10.992;2022-10-28T12:13:09;19.30;99.90
14093;DHT22;7123;49.468;10.992;2022-10-28T12:16:12;19.30;99.90
14093;DHT22;7123;49.468;10.992;2022-10-28T12:18:54;19.30;99.90
14093;DHT22;7123;49.468;10.992;2022-10-28T12:23:52;19.30;99.90
14093;DHT22;7123;49.468;10.992;2022-10-28T12:26:46;19.30;99.90
14093;DHT22;7123;49.468;10.992;2022-10-28T12:29:26;19.40;99.90
14093;DHT22;7123;49.468;10.992;2022-10-28T12:32:00;19.60;99.90
14093;DHT22;7123;49.468;10.992;2022-10-28T12:34:52;19.70;99.90
14093;DHT22;7123;49.468;10.992;2022-10-28T12:37:26;19.80;99.90
14093;DHT22;7123;49.468;10.992;2022-10-28T12:40:02;19.90;99.90
14093;DHT22;7123;49.468;10.992;2022-10-28T12:42:34;19.80;99.90
14093;DHT22;7123;49.468;10.992;2022-10-28T12:45:07;19.90;99.90
14093;DHT22;7123;49.468;10.992;2022-10-28T12:47:54;19.90;99.90
14093;DHT22;7123;49.468;10.992;2022-10-28T12:50:43;19.80;99.90
14093;DHT22;7123;49.468;10.992;2022-10-28T12:53:21;19.70;99.90
14093;DHT22;7123;49.468;10.992;2022-10-28T12:56:00;19.60;99.90
14093;DHT22;7123;49.468;10.992;2022-10-28T13:01:14;19.60;99.90
14093;DHT22;7123;49.468;10.992;2022-10-28T13:03:42;19.50;99.90
14093;DHT22;7123;49.468;10.992;2022-10-28T13:14:52;19.50;99.90
14093;DHT22;7123;49.468;10.992;2022-10-28T13:20:29;19.60;99.90
14093;DHT22;7123;49.468;10.992;2022-10-28T13:28:52;19.90;99.90
14093;DHT22;7123;49.468;10.992;2022-10-28T13:31:20;19.90;99.90
14093;DHT22;7123;49.468;10.992;2022-10-28T13:33:53;20.00;99.90
14093;DHT22;7123;49.468;10.992;2022-10-28T13:36:26;20.10;99.90
14093;DHT22;7123;49.468;10.992;2022-10-28T13:38:59;20.20;99.90
14093;DHT22;7123;49.468;10.992;2022-10-28T13:41:30;20.40;99.90
14093;DHT22;7123;49.468;10.992;2022-10-28T13:49:38;20.80;99.90
14093;DHT22;7123;49.468;10.992;2022-10-28T13:52:24;21.00;99.90
14093;DHT22;7123;49.468;10.992;2022-10-28T13:54:56;21.10;99.90
14093;DHT22;7123;49.468;10.992;2022-10-28T13:57:34;21.30;99.90
14093;DHT22;7123;49.468;10.992;2022-10-28T14:00:06;21.60;99.90
14093;DHT22;7123;49.468;10.992;2022-10-28T14:03:01;21.60;99.90
14093;DHT22;7123;49.468;10.992;2022-10-28T14:08:00;21.60;99.90
14093;DHT22;7123;49.468;10.992;2022-10-28T14:10:32;21.60;99.90
14093;DHT22;7123;49.468;10.992;2022-10-28T14:13:17;21.60;99.90
14093;DHT22;7123;49.468;10.992;2022-10-28T14:15:45;21.30;99.90
14093;DHT22;7123;49.468;10.992;2022-10-28T14:21:03;21.10;99.90
14093;DHT22;7123;49.468;10.992;2022-10-28T14:23:59;21.00;99.90
14093;DHT22;7123;49.468;10.992;2022-10-28T14:26:30;21.10;99.90
14093;DHT22;7123;49.468;10.992;2022-10-28T14:28:57;21.10;99.90
14093;DHT22;7123;49.468;10.992;2022-10-28T14:31:39;21.00;99.90
14093;DHT22;7123;49.468;10.992;2022-10-28T14:40:14;21.00;99.90
14093;DHT22;7123;49.468;10.992;2022-10-28T14:42:55;21.00;99.90
14093;DHT22;7123;49.468;10.992;2022-10-28T14:51:03;21.20;99.90
14093;DHT22;7123;49.468;10.992;2022-10-28T14:53:34;21.30;99.90
14093;DHT22;7123;49.468;10.992;2022-10-28T14:58:41;21.10;99.90
14093;DHT22;7123;49.468;10.992;2022-10-28T15:01:22;21.00;99.90
14093;DHT22;7123;49.468;10.992;2022-10-28T15:03:57;20.80;99.90
14093;DHT22;7123;49.468;10.992;2022-10-28T15:06:39;20.80;99.90
14093;DHT22;7123;49.468;10.992;2022-10-28T15:14:31;20.60;99.90
14093;DHT22;7123;49.468;10.992;2022-10-28T15:17:01;20.60;99.90
14093;DHT22;7123;49.468;10.992;2022-10-28T15:19:32;20.50;99.90
14093;DHT22;7123;49.468;10.992;2022-10-28T15:22:21;20.50;99.90
14093;DHT22;7123;49.468;10.992;2022-10-28T15:25:04;20.40;99.90
14093;DHT22;7123;49.468;10.992;2022-10-28T15:27:51;20.40;99.90
14093;DHT22;7123;49.468;10.992;2022-10-28T15:30:21;20.30;99.90
14093;DHT22;7123;49.468;10.992;2022-10-28T15:32:52;20.20;99.90
14093;DHT22;7123;49.468;10.992;2022-10-28T15:37:59;20.00;99.90
14093;DHT22;7123;49.468;10.992;2022-10-28T15:40:29;20.00;99.90
14093;DHT22;7123;49.468;10.992;2022-10-28T15:45:29;19.90;99.90
14093;DHT22;7123;49.468;10.992;2022-10-28T15:47:58;19.90;99.90
14093;DHT22;7123;49.468;10.992;2022-10-28T15:50:30;19.80;99.90
14093;DHT22;7123;49.468;10.992;2022-10-28T15:55:41;19.80;99.90
14093;DHT22;7123;49.468;10.992;2022-10-28T15:58:39;19.80;99.90
14093;DHT22;7123;49.468;10.992;2022-10-28T16:01:09;19.80;99.90
14093;DHT22;7123;49.468;10.992;2022-10-28T16:03:52;19.80;99.90
14093;DHT22;7123;49.468;10.992;2022-10-28T16:06:34;19.70;99.90
14093;DHT22;7123;49.468;10.992;2022-10-28T16:11:51;19.60;99.90
14093;DHT22;7123;49.468;10.992;2022-10-28T16:14:44;19.60;99.90
14093;DHT22;7123;49.468;10.992;2022-10-28T16:22:15;19.50;99.90
14093;DHT22;7123;49.468;10.992;2022-10-28T16:24:44;19.50;99.90
14093;DHT22;7123;49.468;10.992;2022-10-28T16:29:48;19.40;99.90
14093;DHT22;7123;49.468;10.992;2022-10-28T16:32:18;19.40;99.90
14093;DHT22;7123;49.468;10.992;2022-10-28T16:34:45;19.40;99.90
14093;DHT22;7123;49.468;10.992;2022-10-28T16:37:27;19.40;99.90
14093;DHT22;7123;49.468;10.992;2022-10-28T16:39:54;19.40;99.90
14093;DHT22;7123;49.468;10.992;2022-10-28T16:42:21;19.30;99.90
14093;DHT22;7123;49.468;10.992;2022-10-28T16:44:49;19.30;99.90
14093;DHT22;7123;49.468;10.992;2022-10-28T16:47:18;19.30;99.90
14093;DHT22;7123;49.468;10.992;2022-10-28T16:49:46;19.40;99.90
14093;DHT22;7123;49.468;10.992;2022-10-28T16:52:25;19.30;99.90
14093;DHT22;7123;49.468;10.992;2022-10-28T16:54:52;19.30;99.90
14093;DHT22;7123;49.468;10.992;2022-10-28T16:57:19;19.30;99.90
14093;DHT22;7123;49.468;10.992;2022-10-28T16:59:46;19.30;99.90
14093;DHT22;7123;49.468;10.992;2022-10-28T17:04:46;19.30;99.90
14093;DHT22;7123;49.468;10.992;2022-10-28T17:07:13;19.20;99.90
14093;DHT22;7123;49.468;10.992;2022-10-28T17:09:42;19.20;99.90
14093;DHT22;7123;49.468;10.992;2022-10-28T17:12:17;19.20;99.90
14093;DHT22;7123;49.468;10.992;2022-10-28T17:14:44;19.20;99.90
14093;DHT22;7123;49.468;10.992;2022-10-28T17:17:11;19.10;99.90
14093;DHT22;7123;49.468;10.992;2022-10-28T17:19:38;19.10;99.90
14093;DHT22;7123;49.468;10.992;2022-10-28T17:22:06;19.10;99.90
14093;DHT22;7123;49.468;10.992;2022-10-28T17:24:35;19.00;99.90
14093;DHT22;7123;49.468;10.992;2022-10-28T17:27:02;19.00;99.90
14093;DHT22;7123;49.468;10.992;2022-10-28T17:29:29;19.00;99.90
14093;DHT22;7123;49.468;10.992;2022-10-28T17:31:56;19.00;99.90
14093;DHT22;7123;49.468;10.992;2022-10-28T17:34:22;19.00;99.90
14093;DHT22;7123;49.468;10.992;2022-10-28T17:36:49;19.00;99.90
14093;DHT22;7123;49.468;10.992;2022-10-28T17:39:16;19.00;99.90
14093;DHT22;7123;49.468;10.992;2022-10-28T17:41:50;19.00;99.90
14093;DHT22;7123;49.468;10.992;2022-10-28T17:44:17;19.00;99.90
14093;DHT22;7123;49.468;10.992;2022-10-28T17:46:43;19.00;99.90
14093;DHT22;7123;49.468;10.992;2022-10-28T17:49:10;18.90;99.90
14093;DHT22;7123;49.468;10.992;2022-10-28T17:51:37;19.00;99.90
14093;DHT22;7123;49.468;10.992;2022-10-28T17:54:03;18.90;99.90
14093;DHT22;7123;49.468;10.992;2022-10-28T17:56:35;18.90;99.90
14093;DHT22;7123;49.468;10.992;2022-10-28T17:59:02;18.90;99.90
14093;DHT22;7123;49.468;10.992;2022-10-28T18:01:31;18.90;99.90
14093;DHT22;7123;49.468;10.992;2022-10-28T18:03:58;19.00;99.90
14093;DHT22;7123;49.468;10.992;2022-10-28T18:06:25;19.00;99.90
14093;DHT22;7123;49.468;10.992;2022-10-28T18:08:52;19.00;99.90
14093;DHT22;7123;49.468;10.992;2022-10-28T18:11:19;19.00;99.90
14093;DHT22;7123;49.468;10.992;2022-10-28T18:13:47;18.90;99.90
14093;DHT22;7123;49.468;10.992;2022-10-28T18:16:17;19.00;99.90
14093;DHT22;7123;49.468;10.992;2022-10-28T18:18:44;19.00;99.90
14093;DHT22;7123;49.468;10.992;2022-10-28T18:21:11;19.00;99.90
14093;DHT22;7123;49.468;10.992;2022-10-28T18:23:38;19.00;99.90
14093;DHT22;7123;49.468;10.992;2022-10-28T18:26:09;19.00;99.90
14093;DHT22;7123;49.468;10.992;2022-10-28T18:28:37;19.00;99.90
14093;DHT22;7123;49.468;10.992;2022-10-28T18:31:09;19.00;99.90
14093;DHT22;7123;49.468;10.992;2022-10-28T18:33:37;19.00;99.90
14093;DHT22;7123;49.468;10.992;2022-10-28T18:36:08;19.00;99.90
14093;DHT22;7123;49.468;10.992;2022-10-28T18:38:35;19.00;99.90
14093;DHT22;7123;49.468;10.992;2022-10-28T18:41:02;19.00;99.90
14093;DHT22;7123;49.468;10.992;2022-10-28T18:43:29;19.00;99.90
14093;DHT22;7123;49.468;10.992;2022-10-28T18:46:00;19.00;99.90
14093;DHT22;7123;49.468;10.992;2022-10-28T18:48:29;19.00;99.90
14093;DHT22;7123;49.468;10.992;2022-10-28T18:51:01;18.90;99.90
14093;DHT22;7123;49.468;10.992;2022-10-28T18:53:29;19.00;99.90
14093;DHT22;7123;49.468;10.992;2022-10-28T18:55:59;18.90;99.90
14093;DHT22;7123;49.468;10.992;2022-10-28T18:58:26;18.90;99.90
14093;DHT22;7123;49.468;10.992;2022-10-28T19:01:01;18.90;99.90
14093;DHT22;7123;49.468;10.992;2022-10-28T19:03:28;18.90;99.90
14093;DHT22;7123;49.468;10.992;2022-10-28T19:06:03;18.90;99.90
14093;DHT22;7123;49.468;10.992;2022-10-28T19:08:30;18.90;99.90
14093;DHT22;7123;49.468;10.992;2022-10-28T19:10:58;18.90;99.90